Time;durP1;ratioP1;P1;durP2;ratioP2;P2;SDS_P1;SDS_P2;PMS_P1;PMS_P2;Temp;Humidity;BMP_temperature;BMP_pressure;BME280_temperature;BME280_humidity;BME280_pressure;Samples;Min_cycle;Max_cycle;Signal;HPM_P1;HPM_P2
2022/05/27 00:00:44;;;;;;;4.03;3.10;;;;;;;16.56;77.50;99635.31;5033624;28;20037;-78
2022/05/27 00:03:10;;;;;;;5.32;2.88;;;;;;;16.45;77.70;99622.09;5033170;28;20483;-78
2022/05/27 00:05:36;;;;;;;4.47;3.15;;;;;;;16.42;77.83;99632.81;5033661;28;20034;-78
2022/05/27 00:08:01;;;;;;;5.25;2.78;;;;;;;16.35;78.53;99624.53;5033347;28;20484;-78
2022/05/27 00:10:27;;;;;;;4.45;2.65;;;;;;;16.33;79.07;99630.84;5033540;28;20041;-78
2022/05/27 00:12:53;;;;;;;3.40;2.85;;;;;;;16.26;79.62;99624.34;5033641;28;20093;-78
2022/05/27 00:15:20;;;;;;;3.92;2.95;;;;;;;16.21;80.13;99622.88;5015323;28;20033;-77
2022/05/27 00:17:46;;;;;;;6.35;3.60;;;;;;;16.26;80.66;99626.97;5033468;28;20033;-78
2022/05/27 00:20:12;;;;;;;3.45;2.72;;;;;;;16.18;80.83;99611.72;5033101;28;20029;-78
2022/05/27 00:22:37;;;;;;;4.03;2.90;;;;;;;16.17;81.34;99608.25;5033132;28;20540;-78
2022/05/27 00:25:03;;;;;;;4.55;3.10;;;;;;;16.23;81.36;99611.44;5032970;28;20017;-78
2022/05/27 00:27:29;;;;;;;5.55;3.10;;;;;;;16.20;81.38;99609.84;5033182;28;20030;-78
2022/05/27 00:29:54;;;;;;;5.38;3.33;;;;;;;16.19;81.19;99597.66;5033146;28;20048;-78
2022/05/27 00:32:20;;;;;;;4.82;2.55;;;;;;;16.19;81.19;99589.78;5032816;28;20607;-78
2022/05/27 00:34:46;;;;;;;4.80;2.90;;;;;;;16.25;81.20;99607.72;5015435;28;20033;-77
2022/05/27 00:37:12;;;;;;;4.53;2.70;;;;;;;16.26;81.39;99601.53;5032909;28;20026;-77
2022/05/27 00:39:40;;;;;;;4.20;2.83;;;;;;;16.20;81.50;99587.03;5032863;28;20025;-78
2022/05/27 00:42:06;;;;;;;4.70;2.83;;;;;;;16.23;81.55;99587.78;5032675;28;20085;-78
2022/05/27 00:44:31;;;;;;;3.97;3.05;;;;;;;16.18;82.01;99578.44;5031792;28;20466;-77
2022/05/27 00:47:04;;;;;;;4.03;2.45;;;;;;;16.12;82.56;99578.84;5011336;28;20414;-78
2022/05/27 00:49:32;;;;;;;4.22;2.72;;;;;;;16.14;82.29;99576.13;5011781;28;20076;-78
2022/05/27 00:52:19;;;;;;;3.90;2.80;;;;;;;16.18;82.48;99586.31;5013004;28;20109;-78
2022/05/27 00:54:45;;;;;;;8.05;3.00;;;;;;;16.15;82.42;99588.31;5012847;28;20026;-78
2022/05/27 00:57:22;;;;;;;4.68;2.78;;;;;;;16.15;82.35;99578.66;5012592;28;20034;-78
2022/05/27 00:59:47;;;;;;;5.03;2.95;;;;;;;16.12;82.48;99570.97;5012938;28;20030;-78
2022/05/27 01:02:12;;;;;;;4.50;2.85;;;;;;;16.06;82.52;99570.59;5012463;28;20438;-78
2022/05/27 01:04:39;;;;;;;3.25;2.55;;;;;;;16.06;82.40;99567.97;5011510;28;20026;-78
2022/05/27 01:07:05;;;;;;;3.22;2.72;;;;;;;16.05;82.36;99566.25;5012396;28;20471;-77
2022/05/27 01:09:33;;;;;;;3.97;3.10;;;;;;;16.01;82.92;99559.53;5012699;28;20029;-78
2022/05/27 01:12:16;;;;;;;2.60;2.40;;;;;;;16.04;82.76;99573.31;5012463;28;20080;-78
2022/05/27 01:14:50;;;;;;;5.65;2.80;;;;;;;16.06;83.27;99560.91;5012661;28;20471;-77
2022/05/27 01:17:36;;;;;;;3.58;2.83;;;;;;;16.04;83.05;99562.78;5012334;28;20510;-77
2022/05/27 01:20:24;;;;;;;3.80;2.55;;;;;;;16.03;82.89;99565.53;4990233;28;20119;-77
2022/05/27 01:23:26;;;;;;;2.97;2.67;;;;;;;15.99;83.23;99557.03;4990369;28;20042;-77
2022/05/27 01:25:57;;;;;;;3.63;2.80;;;;;;;15.95;83.25;99559.03;4990317;28;20212;-77
2022/05/27 01:28:47;;;;;;;3.13;2.45;;;;;;;15.95;83.21;99551.16;4989937;28;20189;-77
2022/05/27 01:31:48;;;;;;;6.00;2.90;;;;;;;15.92;82.92;99545.25;4990126;28;20043;-77
2022/05/27 01:34:17;;;;;;;;;;;;;;;15.95;82.81;99539.81;4990088;28;20254;-77
2022/05/27 01:37:01;;;;;;;2.45;2.13;;;;;;;15.93;82.67;99542.53;4973946;28;20382;-77
2022/05/27 01:39:29;;;;;;;3.75;2.58;;;;;;;15.94;82.84;99535.50;4990049;28;20047;-77
2022/05/27 01:42:18;;;;;;;4.10;2.72;;;;;;;15.94;83.10;99536.34;4990495;28;20043;-77
2022/05/27 01:44:53;;;;;;;3.85;2.75;;;;;;;15.89;82.80;99517.44;4951475;29;20067;-77
2022/05/27 01:47:47;;;;;;;3.60;2.80;;;;;;;15.96;82.91;99530.97;4951360;29;20047;-77
2022/05/27 01:50:23;;;;;;;2.63;2.42;;;;;;;15.92;82.77;99519.84;4859909;29;20045;-77
2022/05/27 01:53:07;;;;;;;5.68;2.97;;;;;;;15.94;83.05;99523.22;4875606;29;20045;-77
2022/05/27 01:55:48;;;;;;;2.50;2.30;;;;;;;15.93;83.00;99525.94;4877811;29;20108;-77
2022/05/27 01:58:21;;;;;;;2.63;2.40;;;;;;;15.86;82.87;99503.69;4915000;29;20072;-77
2022/05/27 02:00:49;;;;;;;3.17;2.40;;;;;;;15.93;83.22;99513.66;4917380;29;20498;-78
2022/05/27 02:03:17;;;;;;;3.90;2.53;;;;;;;15.93;83.12;99504.94;4916893;29;20660;-78
2022/05/27 02:05:52;;;;;;;2.95;2.05;;;;;;;15.93;82.93;99508.41;4917065;29;20097;-78
2022/05/27 02:08:21;;;;;;;2.50;2.30;;;;;;;15.95;82.86;99511.75;4916644;29;20119;-78
2022/05/27 02:10:59;;;;;;;3.88;2.60;;;;;;;15.94;82.97;99503.97;4917082;29;20059;-78
2022/05/27 02:13:47;;;;;;;2.63;2.30;;;;;;;15.98;83.00;99507.25;4916740;29;20052;-78
2022/05/27 02:16:27;;;;;;;4.85;2.47;;;;;;;15.94;82.60;99499.56;4916744;29;20545;-78
2022/05/27 02:19:02;;;;;;;2.92;2.03;;;;;;;15.93;82.47;99490.00;4916765;29;20506;-78
2022/05/27 02:21:40;;;;;;;3.22;2.25;;;;;;;15.88;82.38;99484.22;4931306;29;20046;-78
2022/05/27 02:24:27;;;;;;;3.60;2.47;;;;;;;15.95;82.15;99495.16;4954803;29;20028;-78
2022/05/27 02:26:58;;;;;;;4.03;2.38;;;;;;;15.95;82.01;99493.34;4978229;28;20045;-78
2022/05/27 02:29:28;;;;;;;5.35;2.80;;;;;;;15.86;82.19;99475.63;5015514;28;20041;-78
2022/05/27 02:31:59;;;;;;;2.97;2.15;;;;;;;15.92;82.34;99476.97;5015676;28;20120;-78
2022/05/27 02:37:30;;;;;;;2.55;2.35;;;;;;;15.87;82.03;99460.72;5015254;28;20088;-78
2022/05/27 02:39:58;;;;;;;3.97;2.25;;;;;;;15.86;82.02;99457.25;5015467;28;20034;-78
2022/05/27 02:42:24;;;;;;;4.07;2.45;;;;;;;15.88;82.10;99460.59;5014956;28;20491;-78
2022/05/27 02:44:52;;;;;;;2.53;2.10;;;;;;;15.93;81.86;99466.38;5015344;28;20088;-78
2022/05/27 02:47:36;;;;;;;3.47;2.67;;;;;;;15.90;81.46;99452.63;5034614;28;20506;-78
2022/05/27 02:50:07;;;;;;;2.53;2.30;;;;;;;15.96;81.61;99460.88;5035196;28;20079;-78
2022/05/27 02:53:05;;;;;;;3.92;2.10;;;;;;;15.96;81.75;99458.25;5034808;28;20025;-78
2022/05/27 02:55:57;;;;;;;2.30;2.10;;;;;;;15.95;81.62;99445.25;5034690;28;20033;-78
2022/05/27 02:58:23;;;;;;;2.30;2.10;;;;;;;15.92;81.36;99434.94;5034519;28;20557;-78
2022/05/27 03:00:48;;;;;;;3.28;2.22;;;;;;;15.95;81.43;99443.44;5017228;28;20114;-78
2022/05/27 03:03:13;;;;;;;4.43;2.15;;;;;;;15.98;81.38;99450.28;5034475;28;20018;-78
2022/05/27 03:06:04;;;;;;;2.88;1.90;;;;;;;15.97;81.26;99448.63;5034448;28;20030;-78
2022/05/27 03:08:38;;;;;;;3.53;2.30;;;;;;;15.99;81.37;99444.06;5034066;28;20112;-78
2022/05/27 03:11:16;;;;;;;2.20;2.00;;;;;;;16.01;81.33;99450.03;5016956;28;20501;-78
2022/05/27 03:13:53;;;;;;;2.30;2.10;;;;;;;16.02;81.32;99446.47;5034428;28;20022;-78
2022/05/27 03:16:54;;;;;;;2.30;2.10;;;;;;;15.99;81.33;99436.19;5034249;28;20029;-78
2022/05/27 03:20:01;;;;;;;3.67;2.25;;;;;;;16.05;81.43;99442.78;5034125;28;20075;-78
2022/05/27 03:22:48;;;;;;;3.70;2.33;;;;;;;15.98;81.36;99431.06;4953454;29;20078;-78
2022/05/27 03:25:17;;;;;;;2.30;2.00;;;;;;;16.04;81.45;99441.09;4953574;29;20110;-78
2022/05/27 03:28:00;;;;;;;6.50;2.25;;;;;;;16.04;81.43;99438.47;4953945;29;20143;-78
2022/05/27 03:31:08;;;;;;;3.78;2.10;;;;;;;16.04;81.28;99436.69;4953494;29;20024;-77
2022/05/27 03:33:46;;;;;;;2.00;1.80;;;;;;;16.01;81.43;99434.28;4896349;29;20049;-78
2022/05/27 03:36:26;;;;;;;2.75;2.00;;;;;;;16.03;81.40;99427.13;4896754;29;20032;-78
2022/05/27 03:39:08;;;;;;;2.30;1.98;;;;;;;16.04;81.55;99422.72;4896406;29;20053;-78
2022/05/27 03:41:43;;;;;;;4.35;2.10;;;;;;;15.96;81.49;99410.97;4896332;29;20076;-78
2022/05/27 03:44:14;;;;;;;4.05;2.33;;;;;;;16.06;81.41;99421.66;4896382;29;20045;-77
2022/05/27 03:46:40;;;;;;;3.78;2.30;;;;;;;16.02;81.54;99407.09;4896042;29;20056;-78
2022/05/27 03:49:06;;;;;;;5.15;2.47;;;;;;;16.05;81.54;99416.50;4896290;29;20376;-78
2022/05/27 03:51:35;;;;;;;2.88;1.95;;;;;;;16.06;81.92;99418.22;4895963;29;20491;-78
2022/05/27 03:54:04;;;;;;;2.30;2.03;;;;;;;16.07;81.82;99410.22;4896214;29;20072;-78
2022/05/27 03:56:38;;;;;;;3.50;2.00;;;;;;;16.09;81.87;99413.53;4895881;29;20049;-78
2022/05/27 03:59:05;;;;;;;3.17;2.15;;;;;;;16.12;81.75;99418.59;4931239;28;20035;-78
2022/05/27 04:01:33;;;;;;;3.92;2.10;;;;;;;16.08;81.89;99411.03;4972172;28;20039;-78
2022/05/27 04:04:01;;;;;;;2.45;2.25;;;;;;;16.07;82.06;99415.47;4972249;28;20579;-78
2022/05/27 04:06:28;;;;;;;2.00;1.77;;;;;;;16.12;81.69;99415.13;4971963;28;20114;-77
2022/05/27 04:08:54;;;;;;;3.25;1.95;;;;;;;16.13;81.79;99408.91;4972292;28;20034;-78
2022/05/27 04:11:20;;;;;;;2.67;2.10;;;;;;;16.12;81.64;99405.44;5033300;28;20030;-77
2022/05/27 04:13:47;;;;;;;2.70;1.90;;;;;;;16.17;81.25;99411.19;5033556;28;20109;-78
2022/05/27 04:16:12;;;;;;;4.57;2.15;;;;;;;16.13;81.18;99395.78;5033204;28;20083;-78
2022/05/27 04:18:38;;;;;;;2.65;2.30;;;;;;;16.15;81.16;99393.88;5032750;28;20030;-78
2022/05/27 04:21:03;;;;;;;3.10;2.08;;;;;;;16.19;81.74;99400.59;5033143;28;20040;-78
2022/05/27 04:23:29;;;;;;;5.47;2.28;;;;;;;16.16;81.70;99391.13;5032866;28;20060;-78
2022/05/27 04:25:54;;;;;;;2.75;2.00;;;;;;;16.23;81.43;99394.16;5032915;28;20034;-77
2022/05/27 04:28:19;;;;;;;4.35;2.20;;;;;;;16.21;81.16;99383.75;5015288;28;20102;-78
2022/05/27 04:30:45;;;;;;;3.67;2.38;;;;;;;16.28;80.90;99385.94;5033170;28;20374;-78
2022/05/27 04:33:12;;;;;;;3.35;2.08;;;;;;;16.28;81.04;99380.69;5033204;28;20504;-78
2022/05/27 04:35:38;;;;;;;3.08;1.98;;;;;;;16.32;81.01;99380.31;5014988;28;20033;-78
2022/05/27 04:38:04;;;;;;;3.00;2.13;;;;;;;16.40;80.74;99374.50;5032878;28;20163;-78
2022/05/27 04:40:29;;;;;;;3.70;2.08;;;;;;;16.44;80.45;99368.06;5032809;28;20030;-78
2022/05/27 04:42:54;;;;;;;2.55;1.88;;;;;;;16.43;80.41;99366.38;5032995;28;20029;-78
2022/05/27 04:45:20;;;;;;;2.40;1.98;;;;;;;16.49;79.96;99367.72;5014470;28;20060;-78
2022/05/27 04:47:46;;;;;;;4.68;2.00;;;;;;;16.60;79.89;99380.88;5032832;28;20044;-78
2022/05/27 04:50:12;;;;;;;2.28;1.88;;;;;;;16.63;79.62;99383.28;5032731;28;20459;-78
2022/05/27 04:52:39;;;;;;;2.65;1.75;;;;;;;16.70;79.34;99376.59;5009944;28;20418;-78
2022/05/27 04:55:08;;;;;;;2.25;1.95;;;;;;;16.69;79.04;99378.41;5010461;28;20074;-78
2022/05/27 04:57:39;;;;;;;2.83;1.90;;;;;;;16.68;78.96;99370.59;5010160;28;20475;-78
2022/05/27 05:00:29;;;;;;;2.90;1.98;;;;;;;16.70;79.30;99376.59;5010365;28;20128;-78
2022/05/27 05:02:55;;;;;;;2.08;1.80;;;;;;;16.78;79.80;99374.25;5010377;28;20049;-78
2022/05/27 05:05:23;;;;;;;3.60;2.10;;;;;;;16.74;80.19;99364.94;5009950;28;20403;-78
2022/05/27 05:07:58;;;;;;;2.40;1.60;;;;;;;16.83;80.50;99372.09;4993715;28;20681;-78
2022/05/27 05:10:25;;;;;;;3.13;1.85;;;;;;;16.84;80.61;99373.78;5009992;28;20037;-78
2022/05/27 05:12:51;;;;;;;3.35;2.03;;;;;;;16.82;80.54;99359.09;5010324;28;20046;-78
2022/05/27 05:15:18;;;;;;;3.15;1.92;;;;;;;16.90;80.68;99369.84;4993617;28;20044;-78
2022/05/27 05:17:44;;;;;;;5.68;2.30;;;;;;;16.86;80.07;99355.25;5010020;28;20045;-78
2022/05/27 05:20:12;;;;;;;3.35;1.90;;;;;;;16.93;79.50;99359.06;5009893;28;20030;-78
2022/05/27 05:22:38;;;;;;;3.72;2.10;;;;;;;16.99;79.23;99355.16;5011838;28;20475;-77
2022/05/27 05:25:04;;;;;;;2.95;2.10;;;;;;;17.04;78.96;99361.72;5032259;28;20034;-78
2022/05/27 05:27:30;;;;;;;3.55;2.20;;;;;;;17.05;78.37;99365.19;5032054;28;20086;-78
2022/05/27 05:29:57;;;;;;;4.53;2.17;;;;;;;17.08;78.45;99362.31;5031659;28;20076;-78
2022/05/27 05:32:23;;;;;;;3.47;1.98;;;;;;;17.08;78.03;99364.94;5032049;28;20026;-78
2022/05/27 05:34:48;;;;;;;3.35;2.13;;;;;;;17.07;77.90;99364.13;5032152;28;20056;-78
2022/05/27 05:37:15;;;;;;;1.80;1.50;;;;;;;17.05;78.11;99358.13;5032114;28;20107;-78
2022/05/27 05:39:41;;;;;;;3.42;1.95;;;;;;;17.09;77.97;99366.63;5031692;28;20514;-78
2022/05/27 05:42:08;;;;;;;3.30;2.13;;;;;;;17.04;77.78;99351.19;5031973;28;20034;-78
2022/05/27 05:44:34;;;;;;;3.20;2.05;;;;;;;17.08;77.55;99362.31;5031578;28;20494;-76
2022/05/27 05:47:01;;;;;;;4.00;1.92;;;;;;;17.05;77.24;99363.38;5031948;28;20041;-76
2022/05/27 05:49:27;;;;;;;6.18;2.35;;;;;;;17.00;77.50;99349.75;5031738;28;20467;-75
2022/05/27 05:51:54;;;;;;;2.75;2.00;;;;;;;17.08;77.09;99364.94;5031914;28;20038;-78
2022/05/27 05:54:20;;;;;;;4.70;2.25;;;;;;;17.06;77.19;99362.41;5013921;28;20032;-77
2022/05/27 05:56:47;;;;;;;6.00;2.60;;;;;;;17.07;77.19;99356.22;5013848;28;20029;-77
2022/05/27 05:59:14;;;;;;;5.32;1.98;;;;;;;17.02;77.51;99362.78;5031631;28;20100;-77
2022/05/27 06:01:40;;;;;;;4.03;2.20;;;;;;;17.03;78.10;99369.75;5031390;28;20382;-78
2022/05/27 06:04:06;;;;;;;3.80;2.08;;;;;;;17.01;78.34;99376.91;5031843;28;20026;-77
2022/05/27 06:06:31;;;;;;;4.75;2.13;;;;;;;16.95;79.07;99365.06;5031528;28;20030;-78
2022/05/27 06:08:56;;;;;;;4.45;2.35;;;;;;;16.94;79.68;99374.75;5031728;28;20026;-78
2022/05/27 06:11:22;;;;;;;2.80;1.88;;;;;;;16.87;79.94;99365.66;5031672;28;20022;-78
2022/05/27 06:13:47;;;;;;;5.22;2.45;;;;;;;16.85;80.69;99366.72;5031454;28;20036;-78
2022/05/27 06:16:12;;;;;;;6.60;2.47;;;;;;;16.87;81.56;99380.59;5013614;28;20029;-78
2022/05/27 06:18:38;;;;;;;5.45;2.33;;;;;;;16.79;82.01;99368.03;5031196;28;20075;-77
2022/05/27 06:21:04;;;;;;;7.13;2.53;;;;;;;16.77;83.27;99369.97;5013920;28;20375;-78
2022/05/27 06:23:30;;;;;;;4.55;2.35;;;;;;;16.74;84.61;99375.44;5031669;28;20422;-77
2022/05/27 06:25:56;;;;;;;4.35;2.60;;;;;;;16.83;85.99;99385.25;5031550;28;20029;-78
2022/05/27 06:36:35;;;;;;;5.82;3.75;;;;;;;16.56;92.18;99382.06;5031258;28;20502;-77
2022/05/27 06:39:00;;;;;;;8.27;4.07;;;;;;;16.51;93.28;99381.56;5031397;28;20033;-77
2022/05/27 06:41:26;;;;;;;6.50;4.10;;;;;;;16.44;94.43;99392.56;5033316;28;20037;-77
2022/05/27 06:43:51;;;;;;;8.70;4.07;;;;;;;16.34;95.25;99386.28;5035032;28;20028;-77
2022/05/27 06:46:16;;;;;;;10.15;8.13;;;;;;;16.33;96.37;99403.03;5035048;28;20041;-78
2022/05/27 06:48:42;;;;;;;15.38;11.27;;;;;;;16.27;98.01;99398.25;5034757;28;20031;-78
2022/05/27 06:51:07;;;;;;;10.65;6.03;;;;;;;16.26;99.31;99401.78;5034944;28;20029;-78
2022/05/27 06:53:33;;;;;;;8.23;4.55;;;;;;;16.13;100.00;99401.84;5034557;28;20037;-78
2022/05/27 06:55:59;;;;;;;6.85;4.50;;;;;;;16.05;100.00;99406.84;5034795;28;20089;-77
2022/05/27 06:58:24;;;;;;;6.43;3.90;;;;;;;15.94;100.00;99409.44;5034844;28;20467;-78
2022/05/27 07:00:49;;;;;;;5.38;3.95;;;;;;;15.78;100.00;99390.47;5016876;28;20128;-78
2022/05/27 07:03:15;;;;;;;4.78;3.75;;;;;;;15.69;100.00;99390.19;5016966;28;20021;-77
2022/05/27 07:05:40;;;;;;;4.47;3.70;;;;;;;15.70;100.00;99401.53;5034407;28;20121;-77
2022/05/27 07:08:06;;;;;;;7.00;3.70;;;;;;;15.64;100.00;99399.31;5016840;28;20021;-77
2022/05/27 07:10:32;;;;;;;4.00;3.50;;;;;;;15.57;100.00;99404.16;5034206;28;20044;-78
2022/05/27 07:12:59;;;;;;;4.05;3.10;;;;;;;15.51;100.00;99404.59;5034711;28;20398;-77
2022/05/27 07:15:29;;;;;;;6.15;2.92;;;;;;;15.47;100.00;99398.72;5034615;28;20029;-77
2022/05/27 07:17:55;;;;;;;;;;;;;;;15.44;100.00;99401.56;5035014;28;20087;-78
2022/05/27 07:20:20;;;;;;;3.83;2.45;;;;;;;15.35;100.00;99404.00;5034399;28;19913;-77
2022/05/27 07:22:45;;;;;;;4.35;2.67;;;;;;;15.36;100.00;99403.88;5034008;28;20040;-77
2022/05/27 07:25:13;;;;;;;3.53;2.30;;;;;;;15.29;100.00;99412.28;5034464;28;20025;-77
2022/05/27 07:27:40;;;;;;;2.97;2.20;;;;;;;15.20;100.00;99406.72;5034001;28;20479;-77
2022/05/27 07:30:07;;;;;;;4.25;2.53;;;;;;;15.17;100.00;99416.63;5034358;28;20083;-77
2022/05/27 07:32:34;;;;;;;3.47;2.30;;;;;;;15.00;100.00;99407.28;5033398;28;20037;-77
2022/05/27 07:34:59;;;;;;;3.55;2.35;;;;;;;14.94;100.00;99405.91;5030185;28;20103;-78
2022/05/27 07:37:25;;;;;;;3.47;2.40;;;;;;;14.94;100.00;99403.28;5032374;28;20133;-78
2022/05/27 07:39:50;;;;;;;2.72;2.30;;;;;;;14.97;100.00;99410.94;5033887;28;20531;-78
2022/05/27 07:42:15;;;;;;;3.92;2.15;;;;;;;14.91;100.00;99403.50;5034071;28;20030;-78
2022/05/27 07:44:41;;;;;;;7.50;2.60;;;;;;;14.90;100.00;99422.78;5033746;28;20028;-78
2022/05/27 07:47:06;;;;;;;2.88;2.20;;;;;;;14.80;100.00;99411.25;5033791;28;20057;-77
2022/05/27 07:49:32;;;;;;;2.25;2.05;;;;;;;14.86;100.00;99423.09;5033629;28;20033;-77
2022/05/27 07:51:57;;;;;;;2.13;1.92;;;;;;;14.86;100.00;99426.56;5015758;28;20390;-78
2022/05/27 07:54:23;;;;;;;3.35;1.95;;;;;;;14.81;100.00;99412.09;5033556;28;20466;-78
2022/05/27 07:56:49;;;;;;;3.15;2.00;;;;;;;14.94;100.00;99416.41;5033814;28;20033;-78
2022/05/27 07:59:14;;;;;;;2.30;1.98;;;;;;;15.03;100.00;99411.47;5015986;28;20120;-78
2022/05/27 08:01:40;;;;;;;1.83;1.70;;;;;;;14.92;100.00;99404.34;5033413;28;20026;-78
2022/05/27 08:04:06;;;;;;;2.95;2.30;;;;;;;14.88;100.00;99416.81;5033615;28;20053;-78
2022/05/27 08:06:33;;;;;;;2.72;2.00;;;;;;;14.76;100.00;99406.34;5033262;28;20036;-78
2022/05/27 08:08:58;;;;;;;2.38;2.13;;;;;;;14.73;100.00;99417.84;5033658;28;20029;-78
2022/05/27 08:11:24;;;;;;;3.08;2.20;;;;;;;14.65;100.00;99400.03;5033588;28;20104;-78
2022/05/27 08:13:49;;;;;;;3.78;2.78;;;;;;;14.60;100.00;99411.75;5033308;28;20799;-78
2022/05/27 08:16:15;;;;;;;3.53;2.20;;;;;;;14.56;100.00;99416.38;5015691;28;20024;-78
2022/05/27 08:18:41;;;;;;;4.50;2.47;;;;;;;14.54;100.00;99417.41;5033094;28;20029;-77
2022/05/27 08:21:06;;;;;;;2.83;2.10;;;;;;;14.44;100.00;99407.50;5033165;28;20501;-77
2022/05/27 08:23:32;;;;;;;2.17;1.98;;;;;;;14.43;100.00;99399.75;5031866;28;20036;-78
2022/05/27 08:25:58;;;;;;;2.45;1.70;;;;;;;14.47;100.00;99417.78;5033104;28;20100;-78
2022/05/27 08:28:27;;;;;;;3.47;1.92;;;;;;;14.51;100.00;99415.00;5033262;28;20021;-78
2022/05/27 08:30:56;;;;;;;4.63;1.88;;;;;;;14.59;100.00;99412.72;5032907;28;20077;-78
2022/05/27 08:33:23;;;;;;;2.90;1.90;;;;;;;14.58;100.00;99400.53;5031752;28;20524;-77
2022/05/27 08:38:35;;;;;;;3.63;1.90;;;;;;;14.68;100.00;99389.34;5032989;28;20048;-78
2022/05/27 08:41:51;;;;;;;3.63;2.00;;;;;;;14.72;100.00;99400.47;5015211;28;20025;-78
2022/05/27 08:44:45;;;;;;;2.50;1.77;;;;;;;14.62;100.00;99402.88;4933189;29;20130;-78
2022/05/27 08:47:19;;;;;;;3.15;2.20;;;;;;;14.61;100.00;99421.28;4932908;29;20145;-78
2022/05/27 08:49:48;;;;;;;3.33;2.17;;;;;;;14.62;100.00;99408.09;4932922;29;20039;-78
2022/05/27 08:52:43;;;;;;;3.70;2.00;;;;;;;14.64;100.00;99421.09;4933051;29;20095;-78
2022/05/27 09:01:05;;;;;;;3.05;2.22;;;;;;;14.63;100.00;99436.00;4933233;29;20043;-78
2022/05/27 09:03:38;;;;;;;2.63;2.30;;;;;;;14.71;100.00;99446.81;4932839;29;20115;-77
2022/05/27 09:06:05;;;;;;;2.65;2.10;;;;;;;14.74;100.00;99443.13;4932425;29;20028;-77
2022/05/27 09:08:30;;;;;;;2.40;2.17;;;;;;;14.70;100.00;99437.25;4932954;29;20047;-78
2022/05/27 09:11:07;;;;;;;7.63;2.60;;;;;;;14.70;100.00;99436.41;4932656;29;20032;-77
2022/05/27 09:13:41;;;;;;;3.58;2.15;;;;;;;14.68;100.00;99440.94;4932752;29;20521;-77
2022/05/27 09:16:21;;;;;;;2.45;2.25;;;;;;;14.64;100.00;99428.97;4932727;29;20035;-78
2022/05/27 09:19:23;;;;;;;3.17;2.03;;;;;;;14.78;100.00;99449.00;4932545;29;20114;-77
2022/05/27 09:22:14;;;;;;;2.00;1.80;;;;;;;14.75;100.00;99443.97;5032121;28;20029;-78
2022/05/27 09:25:13;;;;;;;4.80;2.40;;;;;;;14.84;100.00;99440.75;5032303;28;20429;-78
2022/05/27 09:28:13;;;;;;;3.25;2.42;;;;;;;14.92;100.00;99444.53;5032091;28;20406;-77
2022/05/27 09:30:39;;;;;;;5.35;2.80;;;;;;;14.96;100.00;99447.78;5031969;28;20033;-78
2022/05/27 09:33:10;;;;;;;3.53;2.65;;;;;;;14.89;100.00;99431.63;5032076;28;20159;-78
2022/05/27 09:35:42;;;;;;;5.50;2.90;;;;;;;14.80;100.00;99434.03;5032214;28;20104;-78
2022/05/27 09:38:12;;;;;;;5.10;2.75;;;;;;;14.73;100.00;99439.66;5031861;28;20029;-77
2022/05/27 09:40:47;;;;;;;4.78;2.30;;;;;;;14.65;100.00;99441.97;5031844;28;20087;-77
2022/05/27 09:43:33;;;;;;;3.28;2.72;;;;;;;14.68;100.00;99448.78;5031860;28;20030;-77
2022/05/27 09:46:03;;;;;;;3.75;2.67;;;;;;;14.64;100.00;99463.03;5031973;28;20050;-77
2022/05/27 09:48:28;;;;;;;6.10;2.70;;;;;;;14.46;100.00;99444.09;5013940;28;20025;-78
2022/05/27 09:50:56;;;;;;;2.78;2.38;;;;;;;14.47;100.00;99459.72;5030213;28;20505;-78
2022/05/27 09:53:28;;;;;;;3.25;2.67;;;;;;;14.48;100.00;99468.41;5031891;28;20026;-78
2022/05/27 09:55:59;;;;;;;3.60;2.78;;;;;;;14.50;100.00;99461.34;5031668;28;20068;-77
2022/05/27 09:58:28;;;;;;;4.90;3.67;;;;;;;14.41;100.00;99462.75;5031725;28;20018;-78
2022/05/27 10:00:54;;;;;;;4.53;3.13;;;;;;;14.44;100.00;99466.94;5031462;28;20060;-77
2022/05/27 10:03:40;;;;;;;2.65;2.35;;;;;;;14.42;100.00;99455.72;5031600;28;20025;-77
2022/05/27 10:06:10;;;;;;;3.97;2.08;;;;;;;14.44;100.00;99466.94;5031014;28;20490;-78
2022/05/27 10:08:53;;;;;;;3.53;2.22;;;;;;;14.42;100.00;99472.28;5031810;28;20021;-78
2022/05/27 10:11:22;;;;;;;3.55;2.30;;;;;;;14.43;100.00;99473.13;5031676;28;20042;-77
2022/05/27 10:14:12;;;;;;;6.70;2.50;;;;;;;14.42;100.00;99451.31;5031538;28;20022;-77
2022/05/27 10:16:39;;;;;;;;;;;;;;;14.51;100.00;99460.38;5034328;28;20029;-78
2022/05/27 10:19:14;;;;;;;3.65;2.22;;;;;;;14.46;100.00;99455.44;5035598;28;19928;-78
2022/05/27 10:21:54;;;;;;;3.28;2.20;;;;;;;14.52;100.00;99462.06;5035345;28;20040;-77
2022/05/27 10:24:43;;;;;;;4.35;2.13;;;;;;;14.48;100.00;99455.31;5035450;28;20501;-77
2022/05/27 10:27:16;;;;;;;3.03;2.25;;;;;;;14.46;100.00;99441.47;5018165;28;20439;-78
2022/05/27 10:29:52;;;;;;;3.50;2.83;;;;;;;14.47;100.00;99436.13;5035342;28;20075;-78
2022/05/27 10:32:31;;;;;;;2.97;2.38;;;;;;;14.52;100.00;99428.00;5035251;28;20053;-78
2022/05/27 10:34:59;;;;;;;2.28;2.08;;;;;;;14.54;100.00;99422.63;5035272;28;20113;-78
2022/05/27 10:37:46;;;;;;;5.95;2.10;;;;;;;14.64;100.00;99435.03;5035338;28;20457;-78
2022/05/27 10:40:35;;;;;;;2.70;1.92;;;;;;;14.68;100.00;99435.69;5035206;28;20030;-77
2022/05/27 10:43:11;;;;;;;3.03;2.10;;;;;;;14.72;100.00;99451.09;5034887;28;20030;-78
2022/05/27 10:45:44;;;;;;;2.28;2.00;;;;;;;14.79;100.00;99443.69;5035154;28;20051;-77
2022/05/27 10:48:38;;;;;;;2.38;1.88;;;;;;;14.85;100.00;99456.34;5035130;28;20021;-78
2022/05/27 10:51:19;;;;;;;3.00;2.20;;;;;;;14.85;100.00;99464.22;4934968;29;20048;-77
2022/05/27 10:54:11;;;;;;;3.13;2.03;;;;;;;14.83;100.00;99455.63;4935127;29;20078;-77
2022/05/27 11:03:02;;;;;;;3.13;2.00;;;;;;;14.66;100.00;99448.91;4878610;29;20044;-77
2022/05/27 11:05:36;;;;;;;3.75;2.20;;;;;;;14.58;100.00;99431.97;4878469;29;20044;-77
2022/05/27 11:08:23;;;;;;;3.40;2.40;;;;;;;14.64;100.00;99418.47;4878184;29;20060;-77
2022/05/27 11:11:46;;;;;;;4.72;2.60;;;;;;;14.72;100.00;99452.88;4878205;29;20056;-77
2022/05/27 11:17:27;;;;;;;2.60;2.28;;;;;;;14.60;100.00;99415.22;4841491;29;20412;-77
2022/05/27 11:20:07;;;;;;;3.05;2.00;;;;;;;14.66;100.00;99419.19;4841041;29;20034;-77
2022/05/27 11:23:04;;;;;;;4.03;2.23;;;;;;;14.71;100.00;99436.31;4841475;29;20187;-77
2022/05/27 11:25:43;;;;;;;3.65;2.65;;;;;;;14.58;100.00;99392.66;4841114;29;20095;-77
2022/05/27 11:28:56;;;;;;;3.67;2.30;;;;;;;14.55;100.00;99435.66;4883183;29;20052;-77
2022/05/27 11:31:43;;;;;;;2.50;2.30;;;;;;;14.56;100.00;99410.28;4822647;29;20043;-77
2022/05/27 11:34:26;;;;;;;3.60;2.40;;;;;;;14.61;100.00;99402.94;4822708;29;20055;-77
2022/05/27 11:36:54;;;;;;;2.67;2.47;;;;;;;14.72;100.00;99416.19;4856286;29;20127;-77
2022/05/27 11:39:31;;;;;;;3.30;2.65;;;;;;;14.71;100.00;99419.75;4878060;29;20600;-77
2022/05/27 11:42:13;;;;;;;3.67;2.38;;;;;;;14.68;100.00;99446.16;4877802;29;20041;-77
2022/05/27 11:44:48;;;;;;;3.08;2.60;;;;;;;14.72;100.00;99419.66;4877926;29;20048;-77
2022/05/27 11:47:22;;;;;;;6.95;2.40;;;;;;;14.81;100.00;99428.66;4877640;29;20045;-77
2022/05/27 11:49:50;;;;;;;3.08;2.40;;;;;;;14.91;100.00;99410.53;4886518;29;20402;-77
2022/05/27 11:52:39;;;;;;;3.38;2.50;;;;;;;14.90;100.00;99404.44;4934214;29;20028;-77
2022/05/27 11:55:10;;;;;;;3.25;2.50;;;;;;;15.09;100.00;99421.56;4933941;29;20497;-77
2022/05/27 11:57:52;;;;;;;3.42;2.67;;;;;;;15.20;100.00;99419.84;4934117;29;20036;-77
2022/05/27 12:00:22;;;;;;;3.58;2.53;;;;;;;15.34;100.00;99439.06;4934144;29;20035;-77
2022/05/27 12:03:39;;;;;;;4.03;2.60;;;;;;;15.36;100.00;99424.88;5017110;28;20117;-77
2022/05/27 12:06:16;;;;;;;5.45;2.75;;;;;;;15.33;100.00;99430.31;4929795;29;20044;-77
2022/05/27 12:09:06;;;;;;;4.00;2.70;;;;;;;15.51;100.00;99416.88;4933960;29;20159;-77
2022/05/27 12:11:39;;;;;;;4.28;2.80;;;;;;;15.58;100.00;99399.72;4933924;29;20070;-77
2022/05/27 12:14:14;;;;;;;4.90;2.83;;;;;;;15.76;100.00;99392.34;4933683;29;20031;-78
2022/05/27 12:16:42;;;;;;;3.35;2.72;;;;;;;15.89;100.00;99398.41;4933655;29;20545;-78
2022/05/27 12:19:12;;;;;;;3.45;2.50;;;;;;;16.01;100.00;99378.28;4933530;29;20032;-78
2022/05/27 12:21:45;;;;;;;3.70;2.70;;;;;;;16.06;100.00;99386.69;4933770;29;20046;-77
2022/05/27 12:24:18;;;;;;;4.65;3.08;;;;;;;16.17;100.00;99390.16;4933621;29;20127;-77